Petrosani, Romania
Current Conditions -  °F | °C
As of 11:00 PM on Thursday 29 Jan 2015 (Local Time) from LRSB Reporting Station
Clear Clear  
Wind Chill: 25°   Ceiling: Unl
Heat Index: 30°   Visibility: 5mi
Dew Point: 30°   Wind: 5mph
Humidity: 100%   Direction: 60°ENE
Pressure: 29.53"   Gusts: NA
Location:  45.41°N, 23.38°E
Report Text: LRSB 292000Z 06004KT 8000 NSC M01/M01 Q1000
Loading
Personal Weather Stations






























Interactive Weather Map New forecast layout! Learn more

10-Day Weather Forecast

Advertisements
Track Severe Weather on mobile